sensor_id;sensor_type;location;lat;lon;timestamp;pressure;altitude;pressure_sealevel;temperature;humidity
70445;BME280;57902;49.638;11.070;2023-07-13T00:02:17;98030.88;;;21.78;56.86
70445;BME280;57902;49.638;11.070;2023-07-13T00:04:44;98041.72;;;21.73;56.74
70445;BME280;57902;49.638;11.070;2023-07-13T00:07:11;98033.38;;;21.79;56.51
70445;BME280;57902;49.638;11.070;2023-07-13T00:09:40;98037.31;;;21.74;56.89
70445;BME280;57902;49.638;11.070;2023-07-13T00:12:23;98022.25;;;21.76;56.14
70445;BME280;57902;49.638;11.070;2023-07-13T00:14:50;98015.75;;;21.70;56.35
70445;BME280;57902;49.638;11.070;2023-07-13T00:17:16;98014.78;;;21.71;56.18
70445;BME280;57902;49.638;11.070;2023-07-13T00:19:43;98010.13;;;21.63;57.20
70445;BME280;57902;49.638;11.070;2023-07-13T00:22:09;98013.00;;;21.60;56.41
70445;BME280;57902;49.638;11.070;2023-07-13T00:24:36;98002.28;;;21.52;56.32
70445;BME280;57902;49.638;11.070;2023-07-13T00:27:08;98006.69;;;21.40;56.86
70445;BME280;57902;49.638;11.070;2023-07-13T00:29:35;97999.06;;;21.48;56.22
70445;BME280;57902;49.638;11.070;2023-07-13T00:32:06;98000.72;;;21.38;57.53
70445;BME280;57902;49.638;11.070;2023-07-13T00:34:34;97999.16;;;21.24;57.92
70445;BME280;57902;49.638;11.070;2023-07-13T00:37:00;98005.16;;;21.26;57.49
70445;BME280;57902;49.638;11.070;2023-07-13T00:39:27;98012.88;;;21.28;56.68
70445;BME280;57902;49.638;11.070;2023-07-13T00:41:53;98007.91;;;21.25;58.07
70445;BME280;57902;49.638;11.070;2023-07-13T00:44:20;98014.69;;;21.16;57.77
70445;BME280;57902;49.638;11.070;2023-07-13T00:46:50;98013.38;;;21.10;57.10
70445;BME280;57902;49.638;11.070;2023-07-13T00:49:20;98014.56;;;21.06;57.65
70445;BME280;57902;49.638;11.070;2023-07-13T00:51:51;98010.59;;;21.01;57.49
70445;BME280;57902;49.638;11.070;2023-07-13T00:54:32;98016.31;;;20.94;58.18
70445;BME280;57902;49.638;11.070;2023-07-13T00:57:02;98015.50;;;20.94;57.48
70445;BME280;57902;49.638;11.070;2023-07-13T00:59:31;98027.63;;;20.84;57.98
70445;BME280;57902;49.638;11.070;2023-07-13T01:01:57;98036.56;;;20.81;59.11
70445;BME280;57902;49.638;11.070;2023-07-13T01:04:25;98038.09;;;20.72;58.32
70445;BME280;57902;49.638;11.070;2023-07-13T01:06:52;98035.47;;;20.72;58.47
70445;BME280;57902;49.638;11.070;2023-07-13T01:09:19;98034.56;;;20.60;58.65
70445;BME280;57902;49.638;11.070;2023-07-13T01:11:47;98029.34;;;20.60;58.05
70445;BME280;57902;49.638;11.070;2023-07-13T01:14:14;98031.56;;;20.54;58.57
70445;BME280;57902;49.638;11.070;2023-07-13T01:16:42;98028.59;;;20.47;59.68
70445;BME280;57902;49.638;11.070;2023-07-13T01:19:25;98022.13;;;20.40;59.30
70445;BME280;57902;49.638;11.070;2023-07-13T01:22:05;98017.25;;;20.35;59.39
70445;BME280;57902;49.638;11.070;2023-07-13T01:24:36;98016.50;;;20.33;59.84
70445;BME280;57902;49.638;11.070;2023-07-13T01:27:04;98019.75;;;20.37;58.87
70445;BME280;57902;49.638;11.070;2023-07-13T01:29:33;98018.53;;;20.30;59.19
70445;BME280;57902;49.638;11.070;2023-07-13T01:32:01;98022.75;;;20.19;59.69
70445;BME280;57902;49.638;11.070;2023-07-13T01:34:27;98029.06;;;20.17;59.58
70445;BME280;57902;49.638;11.070;2023-07-13T01:36:54;98027.06;;;20.20;58.88
70445;BME280;57902;49.638;11.070;2023-07-13T01:39:21;98032.34;;;20.07;59.86
70445;BME280;57902;49.638;11.070;2023-07-13T01:41:48;98032.91;;;20.00;60.46
70445;BME280;57902;49.638;11.070;2023-07-13T01:44:15;98033.22;;;19.95;59.66
70445;BME280;57902;49.638;11.070;2023-07-13T01:46:41;98034.19;;;19.94;59.56
70445;BME280;57902;49.638;11.070;2023-07-13T01:49:08;98033.22;;;19.95;59.95
70445;BME280;57902;49.638;11.070;2023-07-13T01:51:34;98035.00;;;19.95;59.22
70445;BME280;57902;49.638;11.070;2023-07-13T01:54:01;98031.59;;;19.81;60.71
70445;BME280;57902;49.638;11.070;2023-07-13T01:56:27;98028.16;;;19.68;60.79
70445;BME280;57902;49.638;11.070;2023-07-13T01:58:54;98036.00;;;19.68;61.09
70445;BME280;57902;49.638;11.070;2023-07-13T02:01:20;98031.72;;;19.67;60.42
70445;BME280;57902;49.638;11.070;2023-07-13T02:03:47;98031.81;;;19.65;60.77
70445;BME280;57902;49.638;11.070;2023-07-13T02:06:13;98027.25;;;19.56;61.70
70445;BME280;57902;49.638;11.070;2023-07-13T02:08:41;98031.13;;;19.50;60.88
70445;BME280;57902;49.638;11.070;2023-07-13T02:11:08;98034.19;;;19.44;61.50
70445;BME280;57902;49.638;11.070;2023-07-13T02:13:35;98029.47;;;19.36;62.70
70445;BME280;57902;49.638;11.070;2023-07-13T02:16:01;98029.91;;;19.30;62.52
70445;BME280;57902;49.638;11.070;2023-07-13T02:18:28;98029.19;;;19.28;61.77
70445;BME280;57902;49.638;11.070;2023-07-13T02:20:54;98033.78;;;19.24;63.13
70445;BME280;57902;49.638;11.070;2023-07-13T02:23:21;98036.06;;;19.29;61.60
70445;BME280;57902;49.638;11.070;2023-07-13T02:25:47;98041.00;;;19.21;62.38
70445;BME280;57902;49.638;11.070;2023-07-13T02:28:14;98033.59;;;19.15;62.61
70445;BME280;57902;49.638;11.070;2023-07-13T02:30:40;98035.47;;;19.13;62.81
70445;BME280;57902;49.638;11.070;2023-07-13T02:33:07;98041.31;;;19.03;62.46
70445;BME280;57902;49.638;11.070;2023-07-13T02:35:33;98034.94;;;18.95;63.65
70445;BME280;57902;49.638;11.070;2023-07-13T02:38:00;98035.97;;;18.92;63.28
70445;BME280;57902;49.638;11.070;2023-07-13T02:40:26;98036.84;;;18.93;63.53
70445;BME280;57902;49.638;11.070;2023-07-13T02:42:53;98038.16;;;18.85;63.57
70445;BME280;57902;49.638;11.070;2023-07-13T02:45:19;98037.94;;;18.76;64.23
70445;BME280;57902;49.638;11.070;2023-07-13T02:47:46;98036.66;;;18.68;64.80
70445;BME280;57902;49.638;11.070;2023-07-13T02:50:12;98045.16;;;18.72;63.81
70445;BME280;57902;49.638;11.070;2023-07-13T02:52:39;98052.78;;;18.75;63.46
70445;BME280;57902;49.638;11.070;2023-07-13T02:55:05;98052.13;;;18.71;64.28
70445;BME280;57902;49.638;11.070;2023-07-13T02:57:32;98052.53;;;18.65;64.10
70445;BME280;57902;49.638;11.070;2023-07-13T03:00:01;98055.66;;;18.58;64.46
70445;BME280;57902;49.638;11.070;2023-07-13T03:02:32;98060.38;;;18.65;64.19
70445;BME280;57902;49.638;11.070;2023-07-13T03:04:59;98080.91;;;18.57;65.78
70445;BME280;57902;49.638;11.070;2023-07-13T03:07:25;98070.78;;;18.52;66.03
70445;BME280;57902;49.638;11.070;2023-07-13T03:09:56;98067.00;;;18.44;65.70
70445;BME280;57902;49.638;11.070;2023-07-13T03:12:23;98065.34;;;18.43;65.41
70445;BME280;57902;49.638;11.070;2023-07-13T03:14:51;98068.06;;;18.41;65.13
70445;BME280;57902;49.638;11.070;2023-07-13T03:17:20;98071.16;;;18.33;65.71
70445;BME280;57902;49.638;11.070;2023-07-13T03:19:46;98071.84;;;18.23;66.33
70445;BME280;57902;49.638;11.070;2023-07-13T03:22:17;98080.06;;;18.16;67.11
70445;BME280;57902;49.638;11.070;2023-07-13T03:24:44;98085.59;;;18.12;67.89
70445;BME280;57902;49.638;11.070;2023-07-13T03:27:10;98087.84;;;18.04;68.22
70445;BME280;57902;49.638;11.070;2023-07-13T03:29:37;98085.81;;;17.94;68.88
70445;BME280;57902;49.638;11.070;2023-07-13T03:32:04;98100.13;;;17.87;68.72
70445;BME280;57902;49.638;11.070;2023-07-13T03:34:30;98104.97;;;17.79;69.13
70445;BME280;57902;49.638;11.070;2023-07-13T03:36:57;98101.84;;;17.74;69.10
70445;BME280;57902;49.638;11.070;2023-07-13T03:39:23;98105.84;;;17.65;69.14
70445;BME280;57902;49.638;11.070;2023-07-13T03:41:50;98113.66;;;17.65;69.47
70445;BME280;57902;49.638;11.070;2023-07-13T03:44:17;98123.91;;;17.68;69.52
70445;BME280;57902;49.638;11.070;2023-07-13T03:46:44;98129.84;;;17.70;69.60
70445;BME280;57902;49.638;11.070;2023-07-13T03:49:12;98128.53;;;17.77;69.18
70445;BME280;57902;49.638;11.070;2023-07-13T03:51:38;98134.78;;;17.75;69.09
70445;BME280;57902;49.638;11.070;2023-07-13T03:54:05;98140.66;;;17.78;70.30
70445;BME280;57902;49.638;11.070;2023-07-13T03:56:32;98135.88;;;17.85;68.82
70445;BME280;57902;49.638;11.070;2023-07-13T03:59:00;98134.78;;;17.89;69.09
70445;BME280;57902;49.638;11.070;2023-07-13T04:01:28;98151.47;;;18.01;68.25
70445;BME280;57902;49.638;11.070;2023-07-13T04:04:13;98138.13;;;18.06;67.67
70445;BME280;57902;49.638;11.070;2023-07-13T04:06:51;98148.38;;;18.09;69.13
70445;BME280;57902;49.638;11.070;2023-07-13T04:09:19;98148.44;;;18.22;67.38
70445;BME280;57902;49.638;11.070;2023-07-13T04:11:47;98147.03;;;18.30;67.23
70445;BME280;57902;49.638;11.070;2023-07-13T04:14:13;98154.56;;;18.35;66.61
70445;BME280;57902;49.638;11.070;2023-07-13T04:16:40;98154.63;;;18.48;67.13
70445;BME280;57902;49.638;11.070;2023-07-13T04:19:07;98161.78;;;18.71;65.50
70445;BME280;57902;49.638;11.070;2023-07-13T04:21:36;98165.25;;;18.99;63.25
70445;BME280;57902;49.638;11.070;2023-07-13T04:24:03;98159.63;;;19.18;62.96
70445;BME280;57902;49.638;11.070;2023-07-13T04:26:30;98164.34;;;19.39;61.61
70445;BME280;57902;49.638;11.070;2023-07-13T04:28:57;98161.75;;;19.52;62.38
70445;BME280;57902;49.638;11.070;2023-07-13T04:31:25;98161.31;;;19.97;59.66
70445;BME280;57902;49.638;11.070;2023-07-13T04:33:51;98157.94;;;20.20;58.06
70445;BME280;57902;49.638;11.070;2023-07-13T04:36:19;98158.88;;;20.43;57.70
70445;BME280;57902;49.638;11.070;2023-07-13T04:38:46;98157.53;;;20.75;56.33
70445;BME280;57902;49.638;11.070;2023-07-13T04:41:13;98155.38;;;21.15;55.49
70445;BME280;57902;49.638;11.070;2023-07-13T04:43:41;98163.22;;;21.04;55.58
70445;BME280;57902;49.638;11.070;2023-07-13T04:46:10;98165.97;;;21.03;55.05
70445;BME280;57902;49.638;11.070;2023-07-13T04:48:38;98168.28;;;21.19;56.54
70445;BME280;57902;49.638;11.070;2023-07-13T04:51:04;98173.38;;;21.67;54.25
70445;BME280;57902;49.638;11.070;2023-07-13T04:53:35;98180.78;;;21.96;52.73
70445;BME280;57902;49.638;11.070;2023-07-13T04:56:06;98183.88;;;21.90;52.30
70445;BME280;57902;49.638;11.070;2023-07-13T04:58:32;98188.41;;;21.88;51.94
70445;BME280;57902;49.638;11.070;2023-07-13T05:01:07;98189.06;;;21.44;53.91
70445;BME280;57902;49.638;11.070;2023-07-13T05:03:36;98186.72;;;21.17;55.03
70445;BME280;57902;49.638;11.070;2023-07-13T05:06:07;98193.28;;;21.11;54.79
70445;BME280;57902;49.638;11.070;2023-07-13T05:08:36;98195.03;;;20.75;56.61
70445;BME280;57902;49.638;11.070;2023-07-13T05:11:04;98188.88;;;20.88;56.09
70445;BME280;57902;49.638;11.070;2023-07-13T05:13:31;98191.00;;;21.18;54.78
70445;BME280;57902;49.638;11.070;2023-07-13T05:16:01;98201.59;;;21.52;53.28
70445;BME280;57902;49.638;11.070;2023-07-13T05:18:30;98204.97;;;21.65;51.95
70445;BME280;57902;49.638;11.070;2023-07-13T05:21:03;98210.31;;;22.66;51.30
70445;BME280;57902;49.638;11.070;2023-07-13T05:23:31;98209.19;;;23.75;48.10
70445;BME280;57902;49.638;11.070;2023-07-13T05:26:00;98204.53;;;24.60;45.07
70445;BME280;57902;49.638;11.070;2023-07-13T05:28:28;98213.44;;;25.08;43.80
70445;BME280;57902;49.638;11.070;2023-07-13T05:30:56;98212.31;;;25.50;43.17
70445;BME280;57902;49.638;11.070;2023-07-13T05:33:24;98211.28;;;26.46;40.44
70445;BME280;57902;49.638;11.070;2023-07-13T05:35:51;98213.81;;;27.37;38.89
70445;BME280;57902;49.638;11.070;2023-07-13T05:38:17;98209.94;;;27.50;37.72
70445;BME280;57902;49.638;11.070;2023-07-13T05:40:44;98213.66;;;28.18;36.76
70445;BME280;57902;49.638;11.070;2023-07-13T05:43:12;98217.06;;;28.53;36.03
70445;BME280;57902;49.638;11.070;2023-07-13T05:45:39;98212.38;;;27.96;37.75
70445;BME280;57902;49.638;11.070;2023-07-13T05:48:06;98219.06;;;27.82;37.49
70445;BME280;57902;49.638;11.070;2023-07-13T05:50:32;98213.72;;;27.73;36.96
70445;BME280;57902;49.638;11.070;2023-07-13T05:52:59;98215.28;;;27.58;36.90
70445;BME280;57902;49.638;11.070;2023-07-13T05:55:25;98217.13;;;27.57;35.79
70445;BME280;57902;49.638;11.070;2023-07-13T05:57:52;98226.06;;;27.02;37.08
70445;BME280;57902;49.638;11.070;2023-07-13T06:00:18;98230.38;;;26.67;37.68
70445;BME280;57902;49.638;11.070;2023-07-13T06:02:45;98232.88;;;27.05;37.19
70445;BME280;57902;49.638;11.070;2023-07-13T06:05:12;98227.50;;;27.51;37.76
70445;BME280;57902;49.638;11.070;2023-07-13T06:07:39;98230.88;;;28.14;34.79
70445;BME280;57902;49.638;11.070;2023-07-13T06:10:05;98237.13;;;27.86;35.69
70445;BME280;57902;49.638;11.070;2023-07-13T06:12:32;98231.03;;;27.86;34.88
70445;BME280;57902;49.638;11.070;2023-07-13T06:14:59;98233.63;;;27.15;36.56
70445;BME280;57902;49.638;11.070;2023-07-13T06:17:25;98228.19;;;27.17;37.39
70445;BME280;57902;49.638;11.070;2023-07-13T06:19:55;98224.94;;;27.93;34.90
70445;BME280;57902;49.638;11.070;2023-07-13T06:22:21;98230.66;;;28.50;34.55
70445;BME280;57902;49.638;11.070;2023-07-13T06:24:48;98230.13;;;29.13;33.27
70445;BME280;57902;49.638;11.070;2023-07-13T06:27:15;98236.78;;;29.50;32.13
70445;BME280;57902;49.638;11.070;2023-07-13T06:29:42;98233.78;;;29.54;32.19
70445;BME280;57902;49.638;11.070;2023-07-13T06:32:11;98241.50;;;30.52;29.95
70445;BME280;57902;49.638;11.070;2023-07-13T06:34:38;98246.03;;;30.75;30.47
70445;BME280;57902;49.638;11.070;2023-07-13T06:37:08;98247.91;;;31.21;28.91
70445;BME280;57902;49.638;11.070;2023-07-13T06:39:35;98248.41;;;31.25;28.90
70445;BME280;57902;49.638;11.070;2023-07-13T06:42:02;98246.44;;;31.18;29.14
70445;BME280;57902;49.638;11.070;2023-07-13T06:44:31;98252.00;;;30.77;29.15
70445;BME280;57902;49.638;11.070;2023-07-13T06:46:58;98250.19;;;29.82;30.73
70445;BME280;57902;49.638;11.070;2023-07-13T06:49:25;98250.03;;;29.67;30.76
70445;BME280;57902;49.638;11.070;2023-07-13T06:51:52;98251.41;;;29.38;31.50
70445;BME280;57902;49.638;11.070;2023-07-13T06:54:18;98255.16;;;28.78;32.91
70445;BME280;57902;49.638;11.070;2023-07-13T06:56:45;98264.78;;;28.87;32.89
70445;BME280;57902;49.638;11.070;2023-07-13T06:59:11;98264.63;;;28.97;31.81
70445;BME280;57902;49.638;11.070;2023-07-13T07:01:39;98268.81;;;29.16;32.57
70445;BME280;57902;49.638;11.070;2023-07-13T07:04:16;98266.47;;;29.87;29.94
70445;BME280;57902;49.638;11.070;2023-07-13T07:06:50;98269.72;;;30.22;29.23
70445;BME280;57902;49.638;11.070;2023-07-13T07:09:25;98271.47;;;29.82;32.68
70445;BME280;57902;49.638;11.070;2023-07-13T07:11:56;98276.09;;;29.80;31.14
70445;BME280;57902;49.638;11.070;2023-07-13T07:14:32;98274.53;;;30.18;30.95
70445;BME280;57902;49.638;11.070;2023-07-13T07:17:04;98280.06;;;30.57;30.29
70445;BME280;57902;49.638;11.070;2023-07-13T07:19:31;98286.31;;;31.50;28.62
70445;BME280;57902;49.638;11.070;2023-07-13T07:22:07;98280.53;;;31.99;27.63
70445;BME280;57902;49.638;11.070;2023-07-13T07:24:38;98286.41;;;31.95;27.21
70445;BME280;57902;49.638;11.070;2023-07-13T07:27:09;98281.16;;;31.48;27.97
70445;BME280;57902;49.638;11.070;2023-07-13T07:29:50;98283.88;;;31.40;29.35
70445;BME280;57902;49.638;11.070;2023-07-13T07:32:43;98283.06;;;31.63;27.57
70445;BME280;57902;49.638;11.070;2023-07-13T07:35:19;98292.88;;;31.62;29.20
70445;BME280;57902;49.638;11.070;2023-07-13T07:37:57;98294.41;;;32.09;26.98
70445;BME280;57902;49.638;11.070;2023-07-13T07:40:32;98294.94;;;31.52;27.27
70445;BME280;57902;49.638;11.070;2023-07-13T07:43:11;98289.16;;;31.02;29.74
70445;BME280;57902;49.638;11.070;2023-07-13T07:45:46;98291.84;;;30.94;28.69
70445;BME280;57902;49.638;11.070;2023-07-13T07:48:21;98298.91;;;31.79;27.15
70445;BME280;57902;49.638;11.070;2023-07-13T07:50:58;98299.84;;;30.94;29.35
70445;BME280;57902;49.638;11.070;2023-07-13T07:53:31;98297.66;;;31.67;27.54
70445;BME280;57902;49.638;11.070;2023-07-13T07:56:06;98310.19;;;31.81;27.01
70445;BME280;57902;49.638;11.070;2023-07-13T07:58:39;98311.13;;;31.73;27.35
70445;BME280;57902;49.638;11.070;2023-07-13T08:01:08;98305.69;;;31.82;26.84
70445;BME280;57902;49.638;11.070;2023-07-13T08:03:38;98320.94;;;31.50;26.18
70445;BME280;57902;49.638;11.070;2023-07-13T08:06:07;98316.38;;;30.81;27.72
70445;BME280;57902;49.638;11.070;2023-07-13T08:08:36;98321.47;;;30.91;27.20
70445;BME280;57902;49.638;11.070;2023-07-13T08:11:04;98320.81;;;30.41;27.98
70445;BME280;57902;49.638;11.070;2023-07-13T08:13:51;98324.78;;;29.56;28.45
70445;BME280;57902;49.638;11.070;2023-07-13T08:16:21;98328.66;;;29.02;29.95
70445;BME280;57902;49.638;11.070;2023-07-13T08:18:49;98324.00;;;28.96;30.43
70445;BME280;57902;49.638;11.070;2023-07-13T08:21:16;98324.75;;;29.31;30.41
70445;BME280;57902;49.638;11.070;2023-07-13T08:23:43;98325.28;;;29.67;28.48
70445;BME280;57902;49.638;11.070;2023-07-13T08:26:10;98320.13;;;29.82;30.96
70445;BME280;57902;49.638;11.070;2023-07-13T08:28:36;98316.72;;;30.22;28.15
70445;BME280;57902;49.638;11.070;2023-07-13T08:31:05;98314.69;;;30.40;29.53
70445;BME280;57902;49.638;11.070;2023-07-13T08:33:32;98316.81;;;29.89;27.84
70445;BME280;57902;49.638;11.070;2023-07-13T08:35:58;98315.09;;;30.12;27.61
70445;BME280;57902;49.638;11.070;2023-07-13T08:38:25;98321.09;;;30.06;25.96
70445;BME280;57902;49.638;11.070;2023-07-13T08:40:56;98320.25;;;30.14;25.99
70445;BME280;57902;49.638;11.070;2023-07-13T08:43:29;98329.69;;;30.25;25.35
70445;BME280;57902;49.638;11.070;2023-07-13T08:46:07;98324.75;;;30.13;25.94
70445;BME280;57902;49.638;11.070;2023-07-13T08:49:08;98329.66;;;30.33;25.14
70445;BME280;57902;49.638;11.070;2023-07-13T08:54:30;98329.41;;;29.62;25.89
70445;BME280;57902;49.638;11.070;2023-07-13T08:57:01;98321.25;;;29.22;25.55
70445;BME280;57902;49.638;11.070;2023-07-13T08:59:31;98316.31;;;28.85;25.69
70445;BME280;57902;49.638;11.070;2023-07-13T09:04:53;98333.81;;;28.00;27.49
70445;BME280;57902;49.638;11.070;2023-07-13T09:10:39;98333.97;;;27.63;27.41
70445;BME280;57902;49.638;11.070;2023-07-13T09:15:45;98345.66;;;27.52;28.54
70445;BME280;57902;49.638;11.070;2023-07-13T09:20:49;98351.34;;;27.29;27.06
70445;BME280;57902;49.638;11.070;2023-07-13T09:23:20;98353.53;;;27.16;27.64
70445;BME280;57902;49.638;11.070;2023-07-13T09:25:49;98345.75;;;27.14;27.76
70445;BME280;57902;49.638;11.070;2023-07-13T09:28:27;98341.00;;;27.18;27.66
70445;BME280;57902;49.638;11.070;2023-07-13T09:31:20;98349.47;;;27.21;27.75
70445;BME280;57902;49.638;11.070;2023-07-13T09:33:50;98353.38;;;27.17;27.42
70445;BME280;57902;49.638;11.070;2023-07-13T09:36:28;98353.31;;;27.09;28.09
70445;BME280;57902;49.638;11.070;2023-07-13T09:39:02;98352.56;;;27.17;27.84
70445;BME280;57902;49.638;11.070;2023-07-13T09:44:27;98339.94;;;27.29;28.00
70445;BME280;57902;49.638;11.070;2023-07-13T09:46:55;98343.06;;;27.42;28.44
70445;BME280;57902;49.638;11.070;2023-07-13T09:49:33;98337.28;;;27.11;27.83
70445;BME280;57902;49.638;11.070;2023-07-13T09:52:06;98339.75;;;26.94;27.41
70445;BME280;57902;49.638;11.070;2023-07-13T09:54:35;98347.00;;;26.92;27.53
70445;BME280;57902;49.638;11.070;2023-07-13T09:57:11;98342.50;;;26.75;27.80
70445;BME280;57902;49.638;11.070;2023-07-13T09:59:56;98341.47;;;26.58;28.25
70445;BME280;57902;49.638;11.070;2023-07-13T10:02:34;98335.13;;;26.31;29.06
70445;BME280;57902;49.638;11.070;2023-07-13T10:05:06;98336.44;;;26.17;29.22
70445;BME280;57902;49.638;11.070;2023-07-13T10:07:39;98334.53;;;26.09;28.61
70445;BME280;57902;49.638;11.070;2023-07-13T10:10:15;98339.25;;;26.06;28.71
70445;BME280;57902;49.638;11.070;2023-07-13T10:12:43;98338.00;;;26.10;29.08
70445;BME280;57902;49.638;11.070;2023-07-13T10:15:15;98328.34;;;26.28;28.48
70445;BME280;57902;49.638;11.070;2023-07-13T10:17:51;98333.38;;;26.59;29.09
70445;BME280;57902;49.638;11.070;2023-07-13T10:20:20;98337.94;;;26.67;27.51
70445;BME280;57902;49.638;11.070;2023-07-13T10:23:00;98346.59;;;26.59;28.24
70445;BME280;57902;49.638;11.070;2023-07-13T10:25:38;98334.88;;;26.71;28.03
70445;BME280;57902;49.638;11.070;2023-07-13T10:31:47;98341.00;;;27.18;27.29
70445;BME280;57902;49.638;11.070;2023-07-13T10:34:14;98335.31;;;27.31;28.04
70445;BME280;57902;49.638;11.070;2023-07-13T10:36:46;98347.59;;;26.86;27.83
70445;BME280;57902;49.638;11.070;2023-07-13T10:39:22;98342.13;;;26.69;29.65
70445;BME280;57902;49.638;11.070;2023-07-13T10:42:05;98341.75;;;26.82;27.72
70445;BME280;57902;49.638;11.070;2023-07-13T10:44:33;98346.78;;;26.85;27.70
70445;BME280;57902;49.638;11.070;2023-07-13T10:47:03;98350.28;;;26.76;28.42
70445;BME280;57902;49.638;11.070;2023-07-13T10:49:31;98342.06;;;26.79;28.91
70445;BME280;57902;49.638;11.070;2023-07-13T10:51:59;98339.50;;;26.87;28.94
70445;BME280;57902;49.638;11.070;2023-07-13T10:59:45;98340.25;;;27.08;28.90
70445;BME280;57902;49.638;11.070;2023-07-13T11:02:26;98336.69;;;26.99;28.08
70445;BME280;57902;49.638;11.070;2023-07-13T11:04:56;98343.34;;;26.65;28.79
70445;BME280;57902;49.638;11.070;2023-07-13T11:07:30;98340.72;;;26.65;29.19
70445;BME280;57902;49.638;11.070;2023-07-13T11:10:02;98342.94;;;26.60;29.19
70445;BME280;57902;49.638;11.070;2023-07-13T11:12:52;98334.88;;;26.71;29.37
70445;BME280;57902;49.638;11.070;2023-07-13T11:15:47;98344.47;;;26.73;29.70
70445;BME280;57902;49.638;11.070;2023-07-13T11:18:22;98341.38;;;26.77;29.21
70445;BME280;57902;49.638;11.070;2023-07-13T11:20:49;98335.66;;;26.82;29.47
70445;BME280;57902;49.638;11.070;2023-07-13T11:25:43;98331.88;;;26.84;28.53
70445;BME280;57902;49.638;11.070;2023-07-13T11:30:43;98334.59;;;26.37;29.14
70445;BME280;57902;49.638;11.070;2023-07-13T11:35:46;98328.06;;;26.69;29.08
70445;BME280;57902;49.638;11.070;2023-07-13T11:38:31;98319.88;;;26.90;29.32
70445;BME280;57902;49.638;11.070;2023-07-13T11:41:02;98317.13;;;26.82;29.66
70445;BME280;57902;49.638;11.070;2023-07-13T11:43:30;98322.91;;;26.95;28.80
70445;BME280;57902;49.638;11.070;2023-07-13T11:45:57;98325.34;;;27.06;28.37
70445;BME280;57902;49.638;11.070;2023-07-13T11:48:29;98327.38;;;27.13;28.00
70445;BME280;57902;49.638;11.070;2023-07-13T11:51:02;98331.00;;;27.12;28.88
70445;BME280;57902;49.638;11.070;2023-07-13T11:53:34;98329.06;;;27.14;28.43
70445;BME280;57902;49.638;11.070;2023-07-13T11:56:28;98332.38;;;27.16;29.42
70445;BME280;57902;49.638;11.070;2023-07-13T11:59:02;98325.06;;;26.82;30.25
70445;BME280;57902;49.638;11.070;2023-07-13T12:01:51;98336.59;;;27.09;28.48
70445;BME280;57902;49.638;11.070;2023-07-13T12:04:23;98325.31;;;26.88;29.88
70445;BME280;57902;49.638;11.070;2023-07-13T12:06:56;98322.84;;;27.05;29.13
70445;BME280;57902;49.638;11.070;2023-07-13T12:09:26;98334.19;;;26.97;29.63
70445;BME280;57902;49.638;11.070;2023-07-13T12:11:53;98330.38;;;27.00;29.49
70445;BME280;57902;49.638;11.070;2023-07-13T12:14:20;98333.19;;;26.98;29.04
70445;BME280;57902;49.638;11.070;2023-07-13T12:16:49;98330.63;;;27.06;29.57
70445;BME280;57902;49.638;11.070;2023-07-13T12:21:44;98328.50;;;27.10;30.86
70445;BME280;57902;49.638;11.070;2023-07-13T12:24:16;98329.41;;;27.01;30.78
70445;BME280;57902;49.638;11.070;2023-07-13T12:27:00;98329.66;;;27.08;29.43
70445;BME280;57902;49.638;11.070;2023-07-13T12:29:32;98330.88;;;27.31;29.74
70445;BME280;57902;49.638;11.070;2023-07-13T12:31:59;98336.81;;;27.43;29.31
70445;BME280;57902;49.638;11.070;2023-07-13T12:34:26;98328.63;;;27.36;29.44
70445;BME280;57902;49.638;11.070;2023-07-13T12:36:55;98324.31;;;27.53;28.89
70445;BME280;57902;49.638;11.070;2023-07-13T12:39:32;98328.41;;;27.48;28.49
70445;BME280;57902;49.638;11.070;2023-07-13T12:44:47;98337.81;;;27.14;31.17
70445;BME280;57902;49.638;11.070;2023-07-13T12:47:14;98338.78;;;27.13;30.36
70445;BME280;57902;49.638;11.070;2023-07-13T12:49:50;98332.81;;;27.29;29.93
70445;BME280;57902;49.638;11.070;2023-07-13T12:52:21;98338.03;;;27.49;29.34
70445;BME280;57902;49.638;11.070;2023-07-13T12:54:56;98340.97;;;27.46;29.00
70445;BME280;57902;49.638;11.070;2023-07-13T12:57:31;98335.75;;;27.36;29.40
70445;BME280;57902;49.638;11.070;2023-07-13T12:59:58;98333.22;;;27.16;29.36
70445;BME280;57902;49.638;11.070;2023-07-13T13:02:32;98334.72;;;27.19;29.18
70445;BME280;57902;49.638;11.070;2023-07-13T13:05:01;98334.03;;;27.17;29.84
70445;BME280;57902;49.638;11.070;2023-07-13T13:07:29;98328.28;;;27.21;30.67
70445;BME280;57902;49.638;11.070;2023-07-13T13:09:56;98331.03;;;27.30;29.88
70445;BME280;57902;49.638;11.070;2023-07-13T13:12:22;98321.44;;;27.47;30.31
70445;BME280;57902;49.638;11.070;2023-07-13T13:14:52;98319.16;;;27.34;30.33
70445;BME280;57902;49.638;11.070;2023-07-13T13:17:22;98325.59;;;27.31;30.62
70445;BME280;57902;49.638;11.070;2023-07-13T13:19:51;98323.72;;;27.41;30.43
70445;BME280;57902;49.638;11.070;2023-07-13T13:22:20;98328.09;;;27.51;29.99
70445;BME280;57902;49.638;11.070;2023-07-13T13:24:47;98325.91;;;27.46;29.28
70445;BME280;57902;49.638;11.070;2023-07-13T13:27:18;98320.78;;;27.45;30.07
70445;BME280;57902;49.638;11.070;2023-07-13T13:29:45;98322.69;;;27.06;31.32
70445;BME280;57902;49.638;11.070;2023-07-13T13:32:14;98329.34;;;27.29;30.32
70445;BME280;57902;49.638;11.070;2023-07-13T13:34:41;98330.66;;;27.42;29.85
70445;BME280;57902;49.638;11.070;2023-07-13T13:37:26;98330.22;;;27.47;30.01
70445;BME280;57902;49.638;11.070;2023-07-13T13:39:53;98322.25;;;27.29;30.56
70445;BME280;57902;49.638;11.070;2023-07-13T13:42:34;98315.59;;;27.61;29.96
70445;BME280;57902;49.638;11.070;2023-07-13T13:45:00;98311.97;;;27.62;29.57